Red Lodge, MT

12:02 AM MDT on July 22, 2017 (GMT -0600)
Island at Rock Creek | | Change Station

Elev 5545 ft 45.19 °N, 109.24 °W | Updated 59 seconds ago

Clear
Clear
59.5 °F
Feels Like 59.5 °F
N
2.7
Wind Variable Wind from SSW

Today
High -- | Low -- °F
--% Chance of Precip.
Yesterday
High -- | Low -- °F
Precip. -- in
Pressure 30.01 in
Visibility 10.0 miles
Clouds Clear
Dew Point 37 °F
Humidity 43%
Rainfall 0.00 in
Snow Depth Not available.
5:51 AM 8:55 PM
Waning Crescent, 2% visible
METAR KCOD 220556Z AUTO 00000KT 10SM CLR 18/05 A3015 RMK AO2 SLP163 T01830050 10294 20183 403060117 51014
Pressure 30.01 in
Visibility 10.0 miles
Clouds Clear
Dew Point 37 °F
Humidity 43%
Rainfall 0.00 in
Snow Depth Not available.
5:51 AM 8:55 PM
Waning Crescent, 2% visible
METAR KCOD 220556Z AUTO 00000KT 10SM CLR 18/05 A3015 RMK AO2 SLP163 T01830050 10294 20183 403060117 51014

Get Severe Weather Alerts

Thanks for signing up!

Be on the lookout for a verification email in your inbox.

You'll start receiving the daily forecast at 6 AM.

×

10-Day Weather Forecast

Almanac

Astronomy

Jul. 22, 2017 Rise Set
Actual Time
Civil Twilight
Nautical Twilight
Astronomical Twilight
Moon
Length of Visible Light
Length of Day
Tomorrow will be .
, % of the Moon is Illuminated

Today's Extremes

State Highs State Lows

Community

WunderPhotos

Category 6

Welcome to Category 6. This is the collective home for Weather Underground's featured writeups by Dr. Jeff Masters (right), Bob Henson (left), Chris Burt, and other regular contributors.

Nearby

Air Quality

  Air Quality AQ Index Pollutant
Not available.

Snow Depth

Station Depth Elevation

Earthquake Activity

City Distance Mag. Time & Date
Minimum magnitude displayed is 2.5.

Coastal Water Temperatures

Place Temperature

Stations

Nearby Weather Stations

Station Location Temp. Windchill Dew Point Humidity Wind Precip. Elev Updated Type
                   

Watches & Warnings

There are currently no watches in effect.